Time;durP1;ratioP1;P1;durP2;ratioP2;P2;SDS_P1;SDS_P2;PMS_P1;PMS_P2;Temp;Humidity;BMP_temperature;BMP_pressure;BME280_temperature;BME280_humidity;BME280_pressure;Samples;Min_cycle;Max_cycle;Signal;HPM_P1;HPM_P2
2022/11/27 00:01:29;;;;;;;98.65;52.80;;;128.00;2252.80;;;;;;6282172;22;20359;-90
2022/11/27 00:03:55;;;;;;;118.82;59.10;;;128.10;2252.80;;;;;;6281931;22;20061;-89
2022/11/27 00:06:24;;;;;;;123.45;62.25;;;128.10;2252.80;;;;;;6281568;22;20004;-90
2022/11/27 00:08:50;;;;;;;115.35;57.47;;;128.20;2252.80;;;;;;6282054;22;20048;-87
2022/11/27 00:11:22;;;;;;;119.38;60.50;;;128.10;2252.80;;;;;;6282007;22;19999;-89
2022/11/27 00:13:51;;;;;;;99.90;54.15;;;103.30;2227.20;;;;;;6288391;22;20098;-90
2022/11/27 00:16:19;;;;;;;103.75;54.60;;;128.00;2252.80;;;;;;6287350;22;20003;-88
2022/11/27 00:18:45;;;;;;;89.85;51.22;;;103.30;2227.20;;;;;;6280618;22;20085;-87
2022/11/27 00:21:15;;;;;;;88.80;48.03;;;103.30;2150.40;;;;;;6281466;22;20014;-89
2022/11/27 00:23:41;;;;;;;85.68;47.90;;;103.30;2227.20;;;;;;6282714;22;20057;-89
2022/11/27 00:26:08;;;;;;;81.40;44.17;;;103.30;2227.20;;;;;;6288272;22;20003;-90
2022/11/27 00:28:37;;;;;;;83.47;47.10;;;103.30;2227.20;;;;;;6285209;22;20000;-92
2022/11/27 00:31:50;;;;;;;84.60;43.85;;;128.00;2252.80;;;;;;6284264;22;20383;-88
2022/11/27 00:34:25;;;;;;;78.03;46.28;;;128.00;2124.80;;;;;;6309032;22;20000;-88
2022/11/27 00:36:51;;;;;;;88.15;50.88;;;128.10;2252.80;;;;;;6281907;22;20052;-89
2022/11/27 00:39:18;;;;;;;81.55;47.45;;;128.20;2252.80;;;;;;6281622;22;20330;-88
2022/11/27 00:41:44;;;;;;;80.70;46.25;;;128.50;2252.80;;;;;;6280895;22;20014;-90
2022/11/27 00:44:11;;;;;;;74.32;45.15;;;128.20;2252.80;;;;;;6281654;22;20061;-89
2022/11/27 00:46:39;;;;;;;81.82;45.88;;;128.10;2252.80;;;;;;6281660;22;20004;-88
2022/11/27 00:49:06;;;;;;;91.82;48.10;;;128.10;2252.80;;;;;;6281085;22;19999;-87
2022/11/27 00:51:32;;;;;;;88.55;48.50;;;128.20;2252.80;;;;;;6281409;22;20011;-88
2022/11/27 00:53:58;;;;;;;82.68;45.53;;;128.30;2252.80;;;;;;6281987;22;20000;-89
2022/11/27 00:56:31;;;;;;;83.10;46.78;;;128.30;2252.80;;;;;;6308741;22;20325;-88
2022/11/27 00:58:58;;;;;;;72.55;43.58;;;128.40;2252.80;;;;;;6281485;22;20433;-90
2022/11/27 01:01:36;;;;;;;78.20;44.47;;;128.30;2252.80;;;;;;6281083;22;19999;-87
2022/11/27 01:04:04;;;;;;;79.78;46.88;;;128.30;2252.80;;;;;;6280929;22;20007;-88
2022/11/27 01:06:30;;;;;;;68.95;42.45;;;128.20;2252.80;;;;;;6281482;22;19999;-88
2022/11/27 01:08:57;;;;;;;67.05;38.75;;;128.10;2252.80;;;;;;6281289;22;20026;-89
2022/11/27 01:11:29;;;;;;;64.30;36.92;;;128.30;2252.80;;;;;;6281545;22;20007;-89
2022/11/27 01:13:56;;;;;;;67.75;39.55;;;103.10;2227.20;;;;;;6281523;22;20022;-89
2022/11/27 01:16:25;;;;;;;72.05;41.17;;;103.30;2227.20;;;;;;6281731;22;20015;-90
2022/11/27 01:18:56;;;;;;;79.45;43.95;;;103.10;2227.20;;;;;;6281620;22;20003;-90
2022/11/27 01:21:54;;;;;;;66.88;38.42;;;103.00;2227.20;;;;;;6256685;22;20007;-85
2022/11/27 02:33:47;;;;;;;43.10;24.27;;;102.70;2227.20;;;;;;6312982;22;20361;-90
2022/11/27 04:00:09;;;;;;;64.18;35.45;;;103.10;2227.20;;;;;;6308699;22;20041;-90
2022/11/27 04:02:55;;;;;;;65.45;38.58;;;103.20;2227.20;;;;;;6308081;22;20443;-91
2022/11/27 04:05:21;;;;;;;71.55;44.28;;;103.20;2227.20;;;;;;6308178;22;20082;-89
2022/11/27 04:07:47;;;;;;;68.70;39.10;;;103.30;2227.20;;;;;;6308148;22;19999;-90
2022/11/27 04:10:13;;;;;;;73.70;43.28;;;103.30;2227.20;;;;;;6308270;22;20108;-90
2022/11/27 04:26:06;;;;;;;40.78;25.67;;;103.10;2227.20;;;;;;6311275;22;20057;-88
2022/11/27 04:58:36;;;;;;;67.97;42.28;;;102.90;2227.20;;;;;;6295859;22;20102;-89
2022/11/27 05:01:04;;;;;;;70.15;41.60;;;103.00;2227.20;;;;;;6310611;22;20444;-89
2022/11/27 05:06:38;;;;;;;85.22;45.80;;;103.00;2227.20;;;;;;6288409;22;20537;-89
2022/11/27 05:09:17;;;;;;;83.45;48.13;;;103.00;2227.20;;;;;;6310378;22;20003;-90
2022/11/27 05:11:45;;;;;;;86.78;49.03;;;103.10;2227.20;;;;;;6308412;22;20073;-89
2022/11/27 05:16:58;;;;;;;88.80;49.83;;;103.00;2227.20;;;;;;6322230;22;20038;-89
2022/11/27 05:32:08;;;;;;;71.72;41.88;;;103.00;2227.20;;;;;;6302213;22;20040;-89
2022/11/27 05:35:32;;;;;;;70.65;41.22;;;102.90;2227.20;;;;;;6278189;22;20118;-90
2022/11/27 05:54:00;;;;;;;99.32;49.45;;;102.70;2048.00;;;;;;6317081;22;20345;-89
2022/11/27 06:24:04;;;;;;;77.75;44.40;;;103.10;2227.20;;;;;;6278361;22;20468;-90
2022/11/27 06:26:32;;;;;;;88.85;50.67;;;103.10;2227.20;;;;;;6252364;22;20311;-91
2022/11/27 06:34:29;;;;;;;87.32;51.28;;;128.10;2252.80;;;;;;6257764;22;20011;-90
2022/11/27 06:36:55;;;;;;;99.65;56.75;;;128.10;2252.80;;;;;;6253019;22;20434;-91
2022/11/27 06:39:21;;;;;;;94.70;57.35;;;128.10;2252.80;;;;;;6253134;22;20000;-91
2022/11/27 06:41:48;;;;;;;90.03;53.63;;;128.20;2252.80;;;;;;6253090;22;20012;-91
2022/11/27 06:44:14;;;;;;;109.88;62.72;;;128.20;2252.80;;;;;;6279828;22;20034;-90
2022/11/27 06:46:40;;;;;;;97.38;57.85;;;128.30;2252.80;;;;;;6252466;22;20422;-91
2022/11/27 06:49:06;;;;;;;81.57;50.10;;;128.30;2252.80;;;;;;6251924;22;20430;-90
2022/11/27 06:51:32;;;;;;;72.22;46.45;;;103.30;2227.20;;;;;;6252303;22;20008;-90
2022/11/27 06:54:00;;;;;;;77.88;48.03;;;103.30;2227.20;;;;;;6252785;22;20008;-89
2022/11/27 07:02:56;;;;;;;109.32;58.10;;;103.30;2227.20;;;;;;6279354;22;20041;-88
2022/11/27 07:05:23;;;;;;;113.15;73.18;;;103.30;2227.20;;;;;;6227146;22;20003;-89
2022/11/27 07:07:50;;;;;;;124.82;74.57;;;103.30;2227.20;;;;;;6280888;22;20011;-87
2022/11/27 07:10:19;;;;;;;111.50;67.68;;;103.20;2227.20;;;;;;6310283;22;20015;-90
2022/11/27 07:12:45;;;;;;;115.47;69.47;;;103.30;2227.20;;;;;;6282890;22;20004;-88
2022/11/27 07:15:13;;;;;;;127.40;79.60;;;103.30;2227.20;;;;;;6308941;22;20010;-89
2022/11/27 07:17:41;;;;;;;118.35;70.07;;;128.00;2252.80;;;;;;6258838;22;20014;-90
2022/11/27 07:20:12;;;;;;;117.43;71.72;;;128.00;2252.80;;;;;;6257030;22;20003;-89
2022/11/27 07:22:41;;;;;;;123.68;75.88;;;128.10;2252.80;;;;;;6310367;22;20003;-89
2022/11/27 07:25:08;;;;;;;122.28;78.93;;;128.10;2252.80;;;;;;6309370;22;20078;-90
2022/11/27 07:27:34;;;;;;;134.18;79.18;;;128.10;2252.80;;;;;;6309222;22;19999;-90
2022/11/27 07:30:00;;;;;;;130.23;77.28;;;128.10;2252.80;;;;;;6311559;22;20034;-90
2022/11/27 07:32:26;;;;;;;118.50;70.32;;;128.30;2252.80;;;;;;6310988;22;20038;-90
2022/11/27 07:34:52;;;;;;;113.95;67.75;;;128.20;2252.80;;;;;;6309066;22;20448;-89
2022/11/27 07:37:18;;;;;;;121.53;70.07;;;128.20;2252.80;;;;;;6309854;22;20003;-89
2022/11/27 07:39:44;;;;;;;115.82;72.40;;;128.20;2252.80;;;;;;6309934;22;20007;-89
2022/11/27 07:42:10;;;;;;;136.38;87.85;;;128.30;2252.80;;;;;;6308799;22;20009;-89
2022/11/27 07:44:36;;;;;;;189.48;121.72;;;128.30;2252.80;;;;;;6308712;22;20317;-90
2022/11/27 07:47:01;;;;;;;144.95;95.28;;;128.30;2252.80;;;;;;6308947;22;20003;-91
2022/11/27 07:49:27;;;;;;;131.18;79.03;;;128.40;2252.80;;;;;;6308758;22;20117;-90
2022/11/27 07:51:53;;;;;;;95.25;57.72;;;128.40;2252.80;;;;;;6308686;22;20034;-90
2022/11/27 07:54:19;;;;;;;99.60;59.33;;;128.40;2252.80;;;;;;6308761;22;20006;-91
2022/11/27 07:56:45;;;;;;;80.05;48.78;;;128.30;2252.80;;;;;;6326684;22;19987;-90
2022/11/27 07:59:11;;;;;;;81.32;48.83;;;128.40;2252.80;;;;;;6336489;22;19987;-92
2022/11/27 08:01:37;;;;;;;77.50;47.45;;;128.40;2252.80;;;;;;6336335;22;19991;-90
2022/11/27 08:04:03;;;;;;;95.90;52.63;;;128.50;2252.80;;;;;;6336161;22;19983;-91
2022/11/27 08:06:29;;;;;;;82.63;44.75;;;128.60;2252.80;;;;;;6335467;22;20003;-89
2022/11/27 08:08:55;;;;;;;83.82;49.30;;;128.70;2252.80;;;;;;6336014;22;19988;-88
2022/11/27 08:11:28;;;;;;;90.32;55.45;;;128.70;2252.80;;;;;;6333326;22;20007;-91
2022/11/27 08:13:57;;;;;;;93.85;52.22;;;128.70;2252.80;;;;;;6333955;22;20009;-90
2022/11/27 08:16:23;;;;;;;86.80;52.33;;;128.80;2252.80;;;;;;6313582;22;20028;-90
2022/11/27 08:18:49;;;;;;;87.22;50.75;;;128.80;2252.80;;;;;;6310194;22;20022;-90
2022/11/27 08:21:15;;;;;;;104.57;62.13;;;128.80;2252.80;;;;;;6308838;22;20417;-91
2022/11/27 08:23:41;;;;;;;91.50;55.97;;;128.90;2252.80;;;;;;6309152;22;19999;-91
2022/11/27 08:26:08;;;;;;;103.93;63.53;;;128.90;2252.80;;;;;;6308946;22;19995;-91
2022/11/27 08:28:34;;;;;;;88.15;53.00;;;128.90;2252.80;;;;;;6282979;22;20082;-89
2022/11/27 08:31:02;;;;;;;235.80;131.32;;;128.80;2252.80;;;;;;6281920;22;20018;-90
2022/11/27 08:33:28;;;;;;;198.65;113.03;;;128.70;2252.80;;;;;;6308340;22;20008;-90
2022/11/27 08:35:54;;;;;;;112.82;65.13;;;128.60;2252.80;;;;;;6308606;22;20006;-92
2022/11/27 08:38:21;;;;;;;109.38;64.53;;;128.80;2252.80;;;;;;6308206;22;20006;-91
2022/11/27 08:43:59;;;;;;;76.00;42.97;;;128.90;2252.80;;;;;;6309085;22;20025;-91
2022/11/27 08:46:25;;;;;;;75.85;43.75;;;128.70;2252.80;;;;;;6307854;22;20436;-89
2022/11/27 08:48:51;;;;;;;67.60;42.72;;;128.80;2252.80;;;;;;6307861;22;20042;-90
2022/11/27 08:51:17;;;;;;;77.03;48.70;;;128.90;2252.80;;;;;;6307779;22;20030;-90
2022/11/27 08:53:44;;;;;;;80.97;49.35;;;128.80;2252.80;;;;;;6308057;22;20003;-90
2022/11/27 08:56:17;;;;;;;92.07;51.38;;;128.80;2252.80;;;;;;6307901;22;19999;-90
2022/11/27 08:58:43;;;;;;;83.85;48.72;;;128.90;2252.80;;;;;;6307646;22;20029;-91
2022/11/27 09:01:36;;;;;;;71.95;44.25;;;128.90;2252.80;;;;;;6307573;22;19999;-92
2022/11/27 09:04:01;;;;;;;79.78;46.15;;;128.90;2252.80;;;;;;6302172;22;19999;-91
2022/11/27 09:06:30;;;;;;;82.85;51.03;;;153.60;2252.80;;;;;;6307278;22;20038;-91
2022/11/27 09:08:57;;;;;;;80.40;48.05;;;153.70;2252.80;;;;;;6307538;22;19999;-91
2022/11/27 09:11:24;;;;;;;73.03;44.55;;;153.70;2252.80;;;;;;6308073;22;20136;-91
2022/11/27 09:13:49;;;;;;;69.63;41.88;;;128.90;2252.80;;;;;;6307329;22;20003;-90
2022/11/27 09:16:17;;;;;;;101.32;57.30;;;128.80;2252.80;;;;;;6307890;22;20026;-92
2022/11/27 09:18:45;;;;;;;96.13;56.65;;;153.60;2252.80;;;;;;6307597;22;20010;-89
2022/11/27 09:21:13;;;;;;;71.68;42.83;;;153.80;2252.80;;;;;;6307551;22;20037;-91
2022/11/27 09:23:39;;;;;;;68.40;41.40;;;153.70;2252.80;;;;;;6307771;22;20421;-92
2022/11/27 09:26:10;;;;;;;68.13;40.95;;;153.60;2252.80;;;;;;6307368;22;20413;-91
2022/11/27 09:28:37;;;;;;;68.70;37.75;;;128.90;2252.80;;;;;;6307792;22;20389;-93
2022/11/27 09:31:06;;;;;;;68.28;41.05;;;128.90;2252.80;;;;;;6307613;22;20039;-92
2022/11/27 09:33:35;;;;;;;90.43;52.55;;;153.70;2252.80;;;;;;6307406;22;20086;-91
2022/11/27 09:36:10;;;;;;;91.63;49.00;;;153.80;2252.80;;;;;;6308002;22;20009;-91
2022/11/27 09:38:37;;;;;;;70.28;41.83;;;153.90;2252.80;;;;;;6307902;22;20423;-93
2022/11/27 09:41:37;;;;;;;62.15;34.85;;;154.00;2252.80;;;;;;6307512;22;20440;-91
2022/11/27 09:44:24;;;;;;;60.58;37.47;;;153.90;2252.80;;;;;;6307799;22;19999;-91
2022/11/27 09:46:53;;;;;;;67.30;38.30;;;153.80;2252.80;;;;;;6307447;22;20002;-91
2022/11/27 09:49:35;;;;;;;74.00;42.53;;;154.00;2252.80;;;;;;6307686;22;20145;-91
2022/11/27 09:52:24;;;;;;;68.30;39.33;;;154.00;2252.80;;;;;;6307636;22;20007;-91
2022/11/27 09:54:59;;;;;;;71.45;44.20;;;154.10;2252.80;;;;;;6307682;22;20007;-91
2022/11/27 09:57:29;;;;;;;72.03;40.15;;;154.10;2252.80;;;;;;6308034;22;20306;-90
2022/11/27 10:00:00;;;;;;;72.45;43.97;;;154.00;2252.80;;;;;;6309431;22;20078;-90
2022/11/27 10:02:29;;;;;;;69.32;40.60;;;153.90;2252.80;;;;;;6309711;22;20421;-92
2022/11/27 10:04:56;;;;;;;66.90;39.30;;;153.90;2252.80;;;;;;6309734;22;20035;-91
2022/11/27 10:07:49;;;;;;;249.18;124.22;;;153.80;2252.80;;;;;;6309471;22;20019;-93
2022/11/27 10:10:52;;;;;;;90.15;51.20;;;153.80;2252.80;;;;;;6283385;22;20451;-92
2022/11/27 10:13:50;;;;;;;75.50;48.13;;;153.80;2252.80;;;;;;6310540;22;20002;-90
2022/11/27 10:16:25;;;;;;;104.18;55.92;;;153.80;2252.80;;;;;;6310200;22;20003;-92
2022/11/27 10:19:04;;;;;;;132.38;69.72;;;153.90;2252.80;;;;;;6309069;22;19996;-92
2022/11/27 10:21:51;;;;;;;56.20;35.15;;;153.90;2252.80;;;;;;6309436;22;20011;-91
2022/11/27 10:24:59;;;;;;;72.20;40.22;;;153.70;2252.80;;;;;;6310210;22;20004;-92
2022/11/27 10:27:32;;;;;;;75.78;43.13;;;153.90;2252.80;;;;;;6282799;22;20007;-92
2022/11/27 10:30:00;;;;;;;82.78;47.10;;;154.00;2252.80;;;;;;6308808;22;20333;-90
2022/11/27 10:32:29;;;;;;;69.72;42.72;;;154.10;2252.80;;;;;;6308992;22;20003;-92
2022/11/27 10:35:04;;;;;;;83.38;46.92;;;154.10;2252.80;;;;;;6309558;22;20060;-91
2022/11/27 10:42:12;;;;;;;72.10;43.78;;;154.20;2252.80;;;;;;5112661;27;20117;-87
2022/11/27 10:44:47;;;;;;;115.22;60.90;;;154.30;2252.80;;;;;;5107055;28;20040;-87
2022/11/27 10:47:14;;;;;;;88.22;50.05;;;154.30;2252.80;;;;;;5111616;28;20028;-87
2022/11/27 10:49:41;;;;;;;62.33;36.78;;;154.20;2252.80;;;;;;5111353;28;20027;-87
2022/11/27 10:52:13;;;;;;;73.70;44.85;;;154.10;2252.80;;;;;;5112517;28;20448;-87
2022/11/27 10:54:39;;;;;;;100.57;58.30;;;154.20;2252.80;;;;;;5110882;28;20024;-86
2022/11/27 10:57:47;;;;;;;119.72;63.83;;;154.20;2252.80;;;;;;5110933;28;20044;-87
2022/11/27 11:00:24;;;;;;;79.75;45.83;;;154.30;2252.80;;;;;;5111027;28;20115;-88
2022/11/27 11:03:04;;;;;;;72.15;44.70;;;154.30;2252.80;;;;;;5111717;28;20035;-87
2022/11/27 11:05:31;;;;;;;61.03;37.35;;;154.40;2252.80;;;;;;5110233;28;20024;-87
2022/11/27 11:08:03;;;;;;;65.70;40.97;;;154.30;2252.80;;;;;;5110593;28;20024;-85
2022/11/27 11:10:41;;;;;;;68.30;40.80;;;154.30;2252.80;;;;;;5110665;28;20039;-86
2022/11/27 11:13:17;;;;;;;72.40;42.45;;;154.30;2252.80;;;;;;5112004;28;20034;-86
2022/11/27 11:15:53;;;;;;;110.85;63.83;;;154.40;2252.80;;;;;;5110669;28;20053;-85
2022/11/27 11:18:42;;;;;;;90.63;57.08;;;154.50;2252.80;;;;;;5110429;28;20123;-86
2022/11/27 11:21:41;;;;;;;72.63;42.08;;;154.50;2252.80;;;;;;5103772;28;20065;-87
2022/11/27 11:24:14;;;;;;;76.38;45.55;;;154.50;2252.80;;;;;;5110015;28;20414;-83
2022/11/27 11:26:46;;;;;;;87.55;48.88;;;154.50;2252.80;;;;;;5110545;28;20118;-86
2022/11/27 11:29:39;;;;;;;92.55;51.33;;;154.50;2252.80;;;;;;5112892;28;20051;-91
2022/11/27 11:32:13;;;;;;;88.85;47.45;;;179.20;2252.80;;;;;;5111011;28;20073;-85
2022/11/27 11:34:50;;;;;;;80.68;46.53;;;179.20;2252.80;;;;;;5109868;28;20032;-86
2022/11/27 11:37:30;;;;;;;71.70;44.17;;;154.50;2252.80;;;;;;5097161;28;20039;-85
2022/11/27 11:40:02;;;;;;;97.32;55.38;;;179.20;2252.80;;;;;;5088616;28;20075;-87
2022/11/27 11:42:30;;;;;;;83.72;46.92;;;179.20;2252.80;;;;;;5090690;28;20028;-85
2022/11/27 11:45:28;;;;;;;76.57;45.78;;;179.20;2252.80;;;;;;5101863;28;20027;-86
2022/11/27 11:47:58;;;;;;;91.80;53.92;;;179.20;2252.80;;;;;;5104038;28;20028;-84
2022/11/27 11:50:49;;;;;;;82.40;50.30;;;179.20;2252.80;;;;;;5108631;28;20066;-85
2022/11/27 11:53:21;;;;;;;71.70;42.10;;;179.30;2252.80;;;;;;5095465;28;20052;-82
2022/11/27 11:56:05;;;;;;;67.13;40.85;;;179.30;2252.80;;;;;;5096909;28;20111;-84
2022/11/27 11:59:05;;;;;;;70.45;42.53;;;179.30;2252.80;;;;;;5097243;28;20352;-83
2022/11/27 12:01:56;;;;;;;69.65;43.00;;;179.30;2252.80;;;;;;5095535;28;20123;-84
2022/11/27 12:05:02;;;;;;;69.95;42.03;;;179.40;2252.80;;;;;;5095651;28;20032;-84
2022/11/27 12:07:46;;;;;;;81.28;48.90;;;179.40;2252.80;;;;;;5095585;28;20028;-83
2022/11/27 12:10:21;;;;;;;66.18;38.53;;;179.40;2252.80;;;;;;5095291;28;20024;-84
2022/11/27 12:12:56;;;;;;;62.88;36.53;;;179.30;2252.80;;;;;;5095513;28;20028;-84
2022/11/27 12:15:36;;;;;;;59.55;38.58;;;154.50;2252.80;;;;;;5095448;28;20027;-83
2022/11/27 12:18:17;;;;;;;63.00;36.40;;;154.50;2252.80;;;;;;5079317;28;20116;-83
2022/11/27 12:21:04;;;;;;;81.65;52.25;;;154.30;2252.80;;;;;;5108024;28;20125;-83
2022/11/27 12:23:53;;;;;;;82.10;50.60;;;154.30;2252.80;;;;;;5108713;28;20047;-84
2022/11/27 12:26:38;;;;;;;76.28;48.78;;;154.40;2252.80;;;;;;5108532;28;20024;-84
2022/11/27 12:29:37;;;;;;;73.18;43.42;;;154.50;2252.80;;;;;;5108603;28;20534;-84
2022/11/27 12:32:27;;;;;;;66.07;40.25;;;179.20;2252.80;;;;;;5074386;28;20028;-83
2022/11/27 12:35:45;;;;;;;65.90;39.65;;;179.20;2252.80;;;;;;5074264;28;20055;-85
2022/11/27 12:38:48;;;;;;;57.45;36.40;;;154.50;2252.80;;;;;;5062395;28;20174;-85
2022/11/27 12:41:23;;;;;;;60.45;37.50;;;179.20;2252.80;;;;;;5108562;28;20048;-84
2022/11/27 12:43:54;;;;;;;60.85;35.83;;;179.20;2252.80;;;;;;5122844;27;20114;-85
2022/11/27 12:46:50;;;;;;;72.15;47.38;;;179.20;2252.80;;;;;;5092190;28;20431;-85
2022/11/27 12:49:42;;;;;;;72.88;45.50;;;179.20;2252.80;;;;;;5094317;28;20482;-86
2022/11/27 12:52:21;;;;;;;64.20;41.60;;;179.20;2252.80;;;;;;5094833;28;20021;-85
2022/11/27 12:54:52;;;;;;;71.75;44.60;;;179.20;2252.80;;;;;;5094973;28;20399;-84
2022/11/27 12:57:37;;;;;;;79.63;48.05;;;179.30;2252.80;;;;;;5094731;28;20024;-85
2022/11/27 13:00:07;;;;;;;73.35;44.17;;;179.30;2252.80;;;;;;5113999;28;20031;-85
2022/11/27 13:02:49;;;;;;;76.30;48.35;;;179.40;2252.80;;;;;;5109505;28;20050;-85
2022/11/27 13:05:27;;;;;;;71.13;41.93;;;179.30;2252.80;;;;;;5094715;28;20035;-85
2022/11/27 13:08:10;;;;;;;80.38;52.25;;;179.30;2252.80;;;;;;5111613;28;20045;-85
2022/11/27 13:10:44;;;;;;;74.68;43.83;;;179.40;2252.80;;;;;;5101263;28;20073;-83
2022/11/27 13:13:48;;;;;;;75.57;48.03;;;179.40;2252.80;;;;;;5102338;28;20031;-82
2022/11/27 13:16:37;;;;;;;76.10;49.35;;;179.40;2252.80;;;;;;5082331;28;20019;-84
2022/11/27 13:19:31;;;;;;;66.03;40.17;;;179.40;2252.80;;;;;;5114304;28;20051;-83
2022/11/27 13:21:59;;;;;;;83.22;48.40;;;179.40;2252.80;;;;;;5112747;28;20036;-85
2022/11/27 13:24:27;;;;;;;99.95;58.78;;;179.30;2252.80;;;;;;5099608;28;20016;-83
2022/11/27 13:27:16;;;;;;;109.43;65.38;;;179.30;2252.80;;;;;;5115420;28;20375;-83
2022/11/27 13:29:50;;;;;;;76.32;46.55;;;179.30;2252.80;;;;;;5090900;28;20479;-83
2022/11/27 13:32:44;;;;;;;72.97;43.67;;;179.20;2252.80;;;;;;5082386;28;20024;-84
2022/11/27 13:35:45;;;;;;;85.05;50.53;;;179.20;2252.80;;;;;;5099662;28;20487;-84
2022/11/27 13:38:25;;;;;;;100.03;55.28;;;179.30;2252.80;;;;;;5113838;28;20028;-84
2022/11/27 13:40:54;;;;;;;81.35;50.30;;;179.20;2252.80;;;;;;5113637;28;20058;-84
2022/11/27 13:43:31;;;;;;;59.38;34.50;;;179.40;2252.80;;;;;;5114776;28;20042;-86
2022/11/27 13:46:08;;;;;;;63.25;35.47;;;154.50;2252.80;;;;;;5114516;28;20024;-86
2022/11/27 13:48:39;;;;;;;66.43;38.70;;;154.50;2252.80;;;;;;5116153;28;20461;-89
2022/11/27 13:51:07;;;;;;;64.20;37.63;;;154.30;2252.80;;;;;;5114785;28;20080;-86
2022/11/27 13:53:36;;;;;;;57.50;36.30;;;154.50;2252.80;;;;;;5114713;28;20032;-88
2022/11/27 13:56:02;;;;;;;82.53;53.08;;;154.50;2252.80;;;;;;5115157;28;20387;-89
2022/11/27 13:58:31;;;;;;;60.97;37.95;;;154.50;2252.80;;;;;;5118641;28;20024;-87
2022/11/27 14:08:37;;;;;;;80.15;48.00;;;154.50;2252.80;;;;;;5035079;28;20051;-94
2022/11/27 14:11:30;;;;;;;85.75;47.78;;;154.50;2252.80;;;;;;4955173;29;20035;-88
2022/11/27 14:13:57;;;;;;;77.72;45.72;;;154.50;2252.80;;;;;;4954337;28;20027;-85
2022/11/27 14:16:32;;;;;;;73.72;44.60;;;154.50;2252.80;;;;;;4950245;28;20020;-86
2022/11/27 14:19:01;;;;;;;74.55;45.55;;;179.20;2252.80;;;;;;5103109;27;20023;-84
2022/11/27 14:21:38;;;;;;;72.90;45.95;;;179.20;2252.80;;;;;;5138440;27;20047;-86
2022/11/27 14:24:33;;;;;;;68.47;45.00;;;179.20;2252.80;;;;;;5132478;27;20112;-88
2022/11/27 14:26:59;;;;;;;73.85;45.15;;;179.20;2252.80;;;;;;5124243;28;20039;-87
2022/11/27 14:29:29;;;;;;;75.07;47.13;;;179.30;2252.80;;;;;;5129852;28;20090;-87
2022/11/27 14:31:58;;;;;;;76.35;45.40;;;179.30;2252.80;;;;;;5126699;28;20028;-87
2022/11/27 14:34:27;;;;;;;74.93;44.15;;;154.50;2252.80;;;;;;5126130;28;20027;-86
2022/11/27 14:36:53;;;;;;;69.95;44.28;;;179.20;2252.80;;;;;;5105348;28;20089;-89
2022/11/27 14:39:32;;;;;;;71.60;42.35;;;154.50;2252.80;;;;;;5075996;28;20083;-89
2022/11/27 14:42:00;;;;;;;71.28;41.67;;;179.20;2252.80;;;;;;5091218;28;20037;-89
2022/11/27 14:44:26;;;;;;;75.75;46.55;;;179.20;2252.80;;;;;;5094327;28;20028;-88
2022/11/27 14:46:54;;;;;;;81.97;48.10;;;154.50;2252.80;;;;;;5094291;28;20024;-88
2022/11/27 14:49:22;;;;;;;98.85;55.15;;;179.20;2252.80;;;;;;5093381;28;20096;-87
2022/11/27 14:51:50;;;;;;;104.18;64.30;;;179.30;2252.80;;;;;;5093673;28;20024;-89
2022/11/27 14:54:37;;;;;;;98.55;58.38;;;179.30;2252.80;;;;;;5093314;28;20024;-88
2022/11/27 14:57:04;;;;;;;114.30;66.60;;;179.40;2252.80;;;;;;5093449;28;20034;-89
2022/11/27 14:59:30;;;;;;;105.63;63.95;;;179.40;2252.80;;;;;;5093305;28;20027;-91
2022/11/27 15:02:00;;;;;;;143.75;84.80;;;179.40;2252.80;;;;;;5093262;28;20020;-89
2022/11/27 15:04:38;;;;;;;110.18;67.35;;;179.30;2252.80;;;;;;5093474;28;20115;-88
2022/11/27 15:07:12;;;;;;;125.57;72.90;;;179.30;2252.80;;;;;;5093389;28;20035;-87
2022/11/27 15:09:46;;;;;;;103.05;62.67;;;179.20;2252.80;;;;;;5093322;28;20032;-87
2022/11/27 15:12:15;;;;;;;89.40;53.05;;;179.20;2252.80;;;;;;5093258;28;20028;-85
2022/11/27 15:14:54;;;;;;;87.50;50.35;;;154.50;2252.80;;;;;;5093178;28;20028;-87
2022/11/27 15:17:28;;;;;;;73.43;42.63;;;154.30;2252.80;;;;;;5093272;28;20028;-88
2022/11/27 15:19:56;;;;;;;71.43;44.08;;;154.20;2252.80;;;;;;5094503;28;20039;-86
2022/11/27 15:22:22;;;;;;;75.57;43.22;;;154.10;2252.80;;;;;;5093534;28;20031;-88
2022/11/27 15:25:04;;;;;;;77.53;49.63;;;154.10;2252.80;;;;;;5093216;28;20024;-84
2022/11/27 15:27:49;;;;;;;170.50;126.63;;;154.00;2252.80;;;;;;5095549;28;20097;-86
2022/11/27 15:30:18;;;;;;;107.47;71.60;;;153.90;2252.80;;;;;;5096746;28;20073;-83
2022/11/27 15:32:51;;;;;;;99.93;64.22;;;154.00;2252.80;;;;;;5096463;28;20032;-85
2022/11/27 15:35:27;;;;;;;73.95;43.97;;;154.10;2252.80;;;;;;5096963;28;20036;-85
2022/11/27 15:37:55;;;;;;;84.28;51.50;;;153.90;2252.80;;;;;;5096840;28;20024;-86
2022/11/27 15:40:28;;;;;;;98.30;60.10;;;154.00;2252.80;;;;;;5114753;28;20067;-86
2022/11/27 15:42:54;;;;;;;;;;;154.00;2252.80;;;;;;5117726;28;20371;-86
2022/11/27 15:45:20;;;;;;;101.80;58.25;;;153.90;2252.80;;;;;;5117110;28;19904;-84
2022/11/27 15:47:46;;;;;;;118.60;70.72;;;154.00;2252.80;;;;;;5117123;28;20028;-86
2022/11/27 15:50:16;;;;;;;138.23;84.03;;;154.10;2252.80;;;;;;5099613;28;20024;-86
2022/11/27 15:52:41;;;;;;;130.95;78.57;;;154.20;2252.80;;;;;;5096650;28;20028;-86
2022/11/27 15:55:14;;;;;;;137.18;82.70;;;154.20;2252.80;;;;;;5096730;28;20043;-85
2022/11/27 15:57:41;;;;;;;140.85;85.13;;;154.20;2252.80;;;;;;5096424;28;20028;-86
2022/11/27 16:00:08;;;;;;;130.93;84.78;;;154.20;2252.80;;;;;;5096412;28;20090;-86
2022/11/27 16:02:35;;;;;;;135.70;85.53;;;154.30;2252.80;;;;;;5097331;28;20478;-85
2022/11/27 16:05:06;;;;;;;168.07;104.72;;;154.40;2252.80;;;;;;5096094;28;20024;-86
2022/11/27 16:07:32;;;;;;;174.38;111.72;;;154.40;2252.80;;;;;;5107197;28;20034;-85
2022/11/27 16:09:57;;;;;;;173.25;109.70;;;154.30;2252.80;;;;;;5101321;28;20031;-85
2022/11/27 16:12:23;;;;;;;173.95;109.00;;;154.30;2252.80;;;;;;5112370;28;20049;-85
2022/11/27 16:14:49;;;;;;;145.18;92.45;;;154.30;2252.80;;;;;;5096168;28;20475;-85
2022/11/27 16:17:15;;;;;;;175.20;111.25;;;154.20;2252.80;;;;;;5096958;28;20043;-85
2022/11/27 16:19:41;;;;;;;190.43;112.38;;;154.20;2252.80;;;;;;5095424;28;20132;-86
2022/11/27 16:22:07;;;;;;;186.88;112.65;;;154.20;2252.80;;;;;;5096230;28;20067;-85
2022/11/27 16:24:33;;;;;;;163.90;103.13;;;154.30;2252.80;;;;;;5095610;28;20463;-82
2022/11/27 16:26:59;;;;;;;167.05;97.93;;;154.30;1945.60;;;;;;5096341;28;20024;-86
2022/11/27 16:29:25;;;;;;;209.00;120.05;;;154.20;2252.80;;;;;;5095463;28;20032;-84
2022/11/27 16:31:51;;;;;;;211.88;126.50;;;154.30;2252.80;;;;;;5095650;28;20024;-83
2022/11/27 16:34:17;;;;;;;195.65;124.93;;;154.30;2252.80;;;;;;5095569;28;20077;-85
2022/11/27 16:36:43;;;;;;;192.10;121.88;;;154.30;2252.80;;;;;;5095460;28;20024;-85
2022/11/27 16:39:10;;;;;;;175.20;118.60;;;154.30;1894.40;;;;;;5095551;28;20078;-87
2022/11/27 16:41:36;;;;;;;162.73;104.72;;;154.20;2252.80;;;;;;5094675;28;20044;-87
2022/11/27 16:44:09;;;;;;;159.95;100.97;;;154.20;2252.80;;;;;;5096610;28;20104;-87
2022/11/27 16:46:37;;;;;;;163.57;106.38;;;154.20;2099.20;;;;;;5095107;28;20055;-84
2022/11/27 16:49:05;;;;;;;176.90;106.82;;;154.30;2252.80;;;;;;5095506;28;20055;-85
2022/11/27 16:51:32;;;;;;;176.52;111.95;;;154.30;2252.80;;;;;;5095581;28;20514;-88
2022/11/27 16:54:01;;;;;;;175.25;112.82;;;154.30;2252.80;;;;;;5094999;28;20051;-86
2022/11/27 16:56:29;;;;;;;201.38;125.47;;;154.30;2252.80;;;;;;5094921;28;20039;-85
2022/11/27 16:58:57;;;;;;;193.60;119.43;;;154.30;2252.80;;;;;;5094870;28;20518;-85
2022/11/27 17:01:29;;;;;;;205.02;125.90;;;154.30;2252.80;;;;;;5094398;28;20036;-83
2022/11/27 17:03:55;;;;;;;190.67;119.17;;;154.30;2252.80;;;;;;5094450;28;20024;-83
2022/11/27 17:06:30;;;;;;;196.15;118.75;;;154.30;2252.80;;;;;;5094552;28;20114;-84
2022/11/27 17:08:59;;;;;;;175.02;110.47;;;154.30;2252.80;;;;;;5094396;28;20035;-84
2022/11/27 17:11:27;;;;;;;194.10;120.65;;;154.30;2252.80;;;;;;5094485;28;20032;-85